Time;durP1;ratioP1;P1;durP2;ratioP2;P2;SDS_P1;SDS_P2;PMS_P1;PMS_P2;Temp;Humidity;BMP_temperature;BMP_pressure;BME280_temperature;BME280_humidity;BME280_pressure;Samples;Min_cycle;Max_cycle;Signal;HPM_P1;HPM_P2
2022/06/03 00:07:48;;;;;;;3.90;2.03;;;24.10;37.40;;;;;;20912569;28;20087;-69
2022/06/03 00:18:13;;;;;;;6.93;2.38;;;24.00;37.50;;;;;;20911465;28;20052;-70
2022/06/03 00:28:18;;;;;;;5.10;1.85;;;23.90;37.60;;;;;;20911731;28;20045;-64
2022/06/03 00:38:42;;;;;;;4.80;1.90;;;23.90;37.30;;;;;;20917326;28;20087;-71
2022/06/03 00:49:37;;;;;;;3.53;2.38;;;24.00;37.10;;;;;;20927297;28;20072;-69
2022/06/03 00:59:38;;;;;;;4.85;1.85;;;23.90;37.20;;;;;;20908633;28;20057;-69
2022/06/03 01:10:19;;;;;;;7.33;1.83;;;23.90;37.60;;;;;;20924733;28;20048;-70
2022/06/03 01:20:46;;;;;;;6.63;2.42;;;24.00;37.90;;;;;;20922630;28;20049;-69
2022/06/03 01:31:27;;;;;;;3.55;2.20;;;23.70;38.60;;;;;;20922914;28;20060;-69
2022/06/03 01:41:42;;;;;;;6.10;2.53;;;23.50;39.50;;;;;;20830891;28;20041;-69
2022/06/03 01:52:04;;;;;;;6.18;2.95;;;23.40;40.40;;;;;;20829685;28;20087;-67
2022/06/03 02:02:46;;;;;;;6.95;2.40;;;23.10;41.30;;;;;;20829421;28;20065;-68
2022/06/03 02:13:19;;;;;;;5.38;2.50;;;23.10;41.30;;;;;;20863631;28;20049;-68
2022/06/03 02:23:39;;;;;;;6.13;2.60;;;23.10;41.70;;;;;;20918634;28;20053;-69
2022/06/03 02:34:00;;;;;;;6.05;2.38;;;22.90;42.30;;;;;;20917774;28;20053;-69
2022/06/03 02:44:36;;;;;;;8.23;2.60;;;22.70;43.10;;;;;;20917137;28;20049;-68
2022/06/03 02:55:09;;;;;;;7.47;2.47;;;22.70;41.50;;;;;;20916225;28;20056;-70
2022/06/03 03:05:52;;;;;;;7.82;2.78;;;22.70;40.80;;;;;;20915349;28;20057;-69
2022/06/03 03:16:31;;;;;;;10.07;2.65;;;22.30;40.90;;;;;;20915960;28;20045;-67
2022/06/03 03:27:09;;;;;;;6.72;2.80;;;22.30;41.50;;;;;;20915360;28;20049;-64
2022/06/03 03:37:17;;;;;;;5.78;2.83;;;22.20;41.80;;;;;;20913559;28;20095;-65
2022/06/03 03:47:55;;;;;;;13.75;2.95;;;22.20;42.30;;;;;;20914393;28;20400;-64
2022/06/03 03:58:35;;;;;;;5.22;2.10;;;22.00;42.60;;;;;;20912180;28;20067;-65
2022/06/03 04:08:57;;;;;;;5.80;1.85;;;22.00;43.10;;;;;;20913178;28;20055;-67
2022/06/03 04:19:12;;;;;;;5.18;2.10;;;22.10;41.80;;;;;;20928825;28;20508;-67
2022/06/03 04:29:45;;;;;;;5.13;1.75;;;21.90;43.70;;;;;;20927728;28;20045;-67
2022/06/03 04:40:10;;;;;;;12.75;3.65;;;21.80;43.80;;;;;;20927671;28;20061;-66
2022/06/03 04:50:27;;;;;;;16.85;3.67;;;21.60;43.80;;;;;;20925781;28;20056;-67
2022/06/03 05:01:07;;;;;;;4.97;1.90;;;21.70;43.00;;;;;;20925002;28;20049;-63
2022/06/03 05:11:33;;;;;;;9.45;3.30;;;21.60;42.90;;;;;;20924820;28;20095;-63
2022/06/03 05:21:38;;;;;;;8.80;3.17;;;21.70;42.70;;;;;;20923010;28;20045;-62
2022/06/03 05:32:08;;;;;;;9.77;2.90;;;21.50;43.20;;;;;;20923137;28;20053;-61
2022/06/03 05:42:36;;;;;;;16.90;3.40;;;21.30;43.60;;;;;;20922063;28;20052;-61
2022/06/03 05:52:50;;;;;;;3.90;1.95;;;21.50;43.60;;;;;;20921287;28;20064;-63
2022/06/03 06:02:58;;;;;;;6.07;2.33;;;21.40;43.50;;;;;;20920485;28;20059;-63
2022/06/03 06:13:20;;;;;;;5.03;2.30;;;21.20;44.00;;;;;;20921248;28;20053;-68
2022/06/03 06:23:43;;;;;;;6.27;2.13;;;21.20;44.30;;;;;;20918665;28;20044;-69
2022/06/03 06:34:06;;;;;;;5.07;1.90;;;21.20;44.80;;;;;;20916505;28;20059;-68
2022/06/03 06:44:34;;;;;;;5.05;2.00;;;21.40;44.40;;;;;;20915855;28;20120;-67
2022/06/03 06:55:05;;;;;;;6.00;2.08;;;21.70;44.70;;;;;;20916117;28;20406;-67
2022/06/03 07:05:33;;;;;;;8.02;2.13;;;21.70;45.10;;;;;;20915512;28;20095;-65
2022/06/03 07:15:42;;;;;;;6.97;2.80;;;22.00;44.90;;;;;;20823287;28;20053;-65
2022/06/03 07:25:48;;;;;;;8.75;2.63;;;22.60;44.20;;;;;;20822718;28;20049;-67
2022/06/03 07:36:04;;;;;;;8.88;2.20;;;22.80;43.60;;;;;;20822157;28;20053;-67
2022/06/03 07:46:11;;;;;;;10.57;2.85;;;23.20;43.30;;;;;;20842827;28;20057;-68
2022/06/03 07:56:24;;;;;;;9.82;3.13;;;23.50;43.00;;;;;;20913199;28;20507;-62
2022/06/03 08:16:56;;;;;;;5.13;2.13;;;24.70;41.10;;;;;;20911650;28;20387;-62
2022/06/03 08:27:02;;;;;;;3.97;1.70;;;24.80;40.50;;;;;;20910920;28;20513;-60
2022/06/03 08:37:09;;;;;;;7.97;2.00;;;25.20;40.30;;;;;;20910404;28;20049;-65
2022/06/03 08:47:18;;;;;;;7.53;2.13;;;25.30;39.50;;;;;;20910925;28;20098;-68
2022/06/03 08:57:22;;;;;;;5.78;1.75;;;25.60;38.80;;;;;;20916058;28;20067;-64
2022/06/03 09:07:26;;;;;;;4.55;1.73;;;25.80;39.00;;;;;;20926764;28;20053;-74
2022/06/03 09:17:56;;;;;;;3.97;1.90;;;25.60;39.40;;;;;;20924880;28;20127;-62
2022/06/03 09:28:00;;;;;;;6.38;2.10;;;25.60;39.40;;;;;;20921736;28;20049;-65
2022/06/03 09:38:02;;;;;;;7.40;2.08;;;25.00;40.50;;;;;;20921969;28;20154;-62
2022/06/03 09:48:04;;;;;;;5.40;2.20;;;25.70;39.00;;;;;;20916481;28;20075;-64
2022/06/03 09:58:10;;;;;;;7.68;2.50;;;26.20;37.80;;;;;;20923970;28;20147;-63
2022/06/03 10:08:12;;;;;;;9.05;3.75;;;26.40;37.40;;;;;;20925479;28;20452;-63
2022/06/03 10:18:22;;;;;;;5.70;2.88;;;26.60;36.50;;;;;;20918350;28;20517;-61
2022/06/03 10:28:24;;;;;;;5.87;2.63;;;26.70;36.00;;;;;;20917930;28;20124;-63
2022/06/03 10:38:31;;;;;;;7.82;1.95;;;26.60;36.00;;;;;;20916722;28;20064;-59
2022/06/03 10:48:34;;;;;;;6.13;1.45;;;26.60;36.10;;;;;;20917367;28;20045;-65
2022/06/03 11:09:07;;;;;;;6.75;2.33;;;26.70;35.30;;;;;;20741273;28;20053;-59
2022/06/03 11:19:21;;;;;;;5.10;1.88;;;27.00;34.80;;;;;;20738723;28;20053;-67
2022/06/03 11:29:31;;;;;;;6.38;2.78;;;27.20;33.50;;;;;;20739703;28;20049;-56
2022/06/03 11:39:56;;;;;;;3.10;1.80;;;27.10;32.90;;;;;;20758958;28;20056;-58
2022/06/03 11:49:57;;;;;;;6.70;1.67;;;27.10;32.10;;;;;;20830111;28;20125;-57
2022/06/03 12:00:13;;;;;;;6.25;2.78;;;27.10;30.90;;;;;;20828027;28;20057;-64
2022/06/03 12:10:26;;;;;;;4.55;1.55;;;27.30;30.40;;;;;;20829700;28;20460;-64
2022/06/03 12:20:31;;;;;;;4.65;1.40;;;27.40;30.40;;;;;;20888972;28;20441;-62
2022/06/03 12:30:42;;;;;;;4.07;1.75;;;27.40;30.40;;;;;;20911315;28;20099;-62
2022/06/03 12:40:45;;;;;;;5.70;1.50;;;27.20;31.20;;;;;;20925830;28;20508;-63
2022/06/03 12:51:17;;;;;;;4.50;1.38;;;27.40;30.50;;;;;;20923824;28;20049;-62
2022/06/03 13:01:41;;;;;;;7.32;1.80;;;27.60;29.90;;;;;;20924055;28;20060;-75
2022/06/03 13:11:45;;;;;;;8.38;1.63;;;27.40;30.50;;;;;;20923602;28;20049;-74
2022/06/03 13:22:03;;;;;;;6.38;2.10;;;27.80;29.90;;;;;;20922936;28;20049;-74
2022/06/03 13:32:14;;;;;;;4.50;1.88;;;28.00;29.70;;;;;;20922642;28;20135;-73
2022/06/03 13:52:46;;;;;;;4.50;1.50;;;28.10;30.10;;;;;;20920928;28;20061;-73
2022/06/03 14:02:52;;;;;;;9.63;3.17;;;28.20;28.50;;;;;;20920384;28;20053;-73
2022/06/03 14:13:13;;;;;;;5.10;1.80;;;28.10;28.70;;;;;;20920252;28;20049;-74
2022/06/03 14:23:29;;;;;;;8.60;2.30;;;28.40;28.30;;;;;;20827692;28;20490;-73
2022/06/03 14:33:42;;;;;;;6.00;2.60;;;28.30;28.50;;;;;;20826167;28;20057;-73
2022/06/03 14:43:44;;;;;;;4.80;2.22;;;28.10;28.80;;;;;;20826077;28;20049;-72
2022/06/03 14:53:52;;;;;;;6.38;1.70;;;27.90;29.50;;;;;;20845701;28;20135;-71
2022/06/03 15:04:00;;;;;;;6.38;1.30;;;28.30;28.10;;;;;;20917073;28;20606;-73
2022/06/03 15:14:17;;;;;;;3.75;1.30;;;28.30;28.20;;;;;;20916256;28;20049;-73
2022/06/03 15:24:19;;;;;;;3.38;1.40;;;28.20;28.10;;;;;;20917310;28;20456;-60
2022/06/03 15:34:23;;;;;;;6.50;2.35;;;27.90;29.20;;;;;;20913966;28;20057;-58
2022/06/03 15:44:40;;;;;;;8.23;1.52;;;27.90;29.40;;;;;;20912327;28;20048;-65
2022/06/03 15:54:56;;;;;;;7.88;5.25;;;27.90;28.10;;;;;;20887616;28;20053;-56
2022/06/03 16:05:01;;;;;;;5.55;1.40;;;27.90;28.80;;;;;;20898591;28;20053;-63
2022/06/03 16:15:40;;;;;;;5.00;1.60;;;27.80;28.50;;;;;;20928038;28;20095;-59
2022/06/03 16:25:48;;;;;;;3.05;1.13;;;27.90;27.70;;;;;;20926580;28;20079;-61
2022/06/03 16:36:04;;;;;;;3.72;1.63;;;28.00;27.80;;;;;;20927832;28;20118;-62
2022/06/03 16:46:24;;;;;;;4.38;2.30;;;28.00;27.50;;;;;;20926161;28;20055;-62
2022/06/03 16:56:29;;;;;;;4.57;1.30;;;27.80;28.10;;;;;;20926303;28;20142;-64
2022/06/03 17:06:31;;;;;;;5.28;2.40;;;27.70;27.80;;;;;;20924421;28;20381;-60
2022/06/03 17:16:41;;;;;;;4.20;1.40;;;27.80;27.90;;;;;;20922994;28;20060;-59
2022/06/03 17:27:34;;;;;;;4.75;1.65;;;27.70;28.60;;;;;;20921741;28;20041;-57
2022/06/03 17:37:45;;;;;;;6.15;2.45;;;27.60;29.00;;;;;;20913790;28;20057;-61
2022/06/03 17:48:29;;;;;;;4.43;1.60;;;27.60;28.40;;;;;;20912888;28;20068;-62
2022/06/03 17:58:41;;;;;;;7.00;2.90;;;27.70;27.90;;;;;;20746169;28;20136;-60
2022/06/03 18:08:51;;;;;;;6.38;1.85;;;27.60;28.30;;;;;;20784445;28;20548;-63
2022/06/03 18:19:20;;;;;;;7.70;2.03;;;27.40;28.50;;;;;;20827889;28;20446;-61
2022/06/03 18:29:32;;;;;;;3.53;2.20;;;27.40;28.70;;;;;;20855778;28;20115;-61
2022/06/03 18:39:49;;;;;;;4.85;1.58;;;27.30;28.80;;;;;;20917013;28;20049;-69
2022/06/03 18:50:02;;;;;;;4.45;1.77;;;27.10;28.80;;;;;;20915939;28;20045;-69
2022/06/03 19:00:06;;;;;;;5.78;1.83;;;26.90;29.50;;;;;;20915295;28;20061;-69
2022/06/03 19:10:22;;;;;;;4.80;1.85;;;26.50;29.60;;;;;;20914370;28;20091;-69
2022/06/03 19:20:49;;;;;;;5.55;1.92;;;26.60;30.10;;;;;;20914621;28;20489;-71
2022/06/03 19:31:09;;;;;;;8.63;3.42;;;26.50;30.20;;;;;;20913137;28;20049;-66
2022/06/03 19:41:29;;;;;;;4.47;1.83;;;26.10;30.80;;;;;;20913185;28;20130;-66
2022/06/03 19:51:58;;;;;;;5.85;1.80;;;26.00;30.70;;;;;;20910529;28;20056;-66
2022/06/03 20:02:33;;;;;;;4.97;2.00;;;25.70;31.30;;;;;;20912208;28;20083;-65
2022/06/03 20:23:23;;;;;;;;;;;25.50;32.20;;;;;;20903747;28;20552;-67
2022/06/03 20:33:43;;;;;;;4.72;2.10;;;25.20;32.40;;;;;;20902924;28;19920;-66
2022/06/03 20:44:20;;;;;;;6.13;2.50;;;25.00;32.70;;;;;;20905009;28;20049;-66
2022/06/03 20:54:26;;;;;;;2.53;1.83;;;25.00;32.90;;;;;;20906639;28;20502;-66
2022/06/03 21:14:51;;;;;;;4.35;2.08;;;24.70;34.30;;;;;;20915930;28;20076;-65
2022/06/03 21:24:58;;;;;;;6.13;2.92;;;24.60;34.60;;;;;;20919020;28;20377;-66
2022/06/03 21:35:17;;;;;;;8.52;5.13;;;24.50;34.60;;;;;;20922886;28;20108;-66
2022/06/03 21:45:23;;;;;;;6.38;2.60;;;24.40;34.70;;;;;;20921577;28;20052;-63
2022/06/03 21:55:45;;;;;;;5.55;2.13;;;24.30;34.90;;;;;;20921005;28;20489;-68
2022/06/03 22:05:48;;;;;;;5.30;2.10;;;24.30;34.80;;;;;;20920334;28;20094;-67
2022/06/03 22:15:50;;;;;;;3.50;1.40;;;24.20;35.20;;;;;;20919974;28;20139;-68
2022/06/03 22:26:21;;;;;;;5.60;1.93;;;23.90;35.70;;;;;;20919334;28;20077;-65
2022/06/03 22:36:34;;;;;;;4.05;1.48;;;23.90;35.70;;;;;;20909160;28;20107;-64
2022/06/03 22:46:39;;;;;;;6.25;2.42;;;23.60;36.40;;;;;;20908671;28;20045;-64
2022/06/03 22:56:41;;;;;;;5.65;1.90;;;23.50;36.70;;;;;;20907508;28;20049;-63
2022/06/03 23:06:44;;;;;;;4.03;1.77;;;23.40;36.80;;;;;;20910506;28;20053;-69
2022/06/03 23:16:45;;;;;;;8.30;2.13;;;23.30;37.20;;;;;;20914651;28;20773;-66
2022/06/03 23:26:47;;;;;;;7.27;2.50;;;23.20;37.30;;;;;;20915336;28;20072;-64
2022/06/03 23:36:50;;;;;;;6.53;3.40;;;23.20;37.30;;;;;;20913836;28;20060;-69
2022/06/03 23:46:55;;;;;;;6.33;2.23;;;23.10;37.70;;;;;;20913214;28;20053;-70
2022/06/03 23:56:58;;;;;;;7.38;3.42;;;23.00;37.80;;;;;;20912491;28;20057;-67
